createdAt,value
2022-10-18T00:01:46.519Z,93510.22
2022-10-18T00:04:15.201Z,93507.13
2022-10-18T00:06:43.787Z,93516.38
2022-10-18T00:09:12.464Z,93508.78
2022-10-18T00:11:41.355Z,93516.25
2022-10-18T00:14:10.003Z,93506.22
2022-10-18T00:16:38.717Z,93499.84
2022-10-18T00:19:07.309Z,93512.31
2022-10-18T00:21:36.592Z,93505.22
2022-10-18T00:24:05.644Z,93499.91
2022-10-18T00:26:34.368Z,93495.97
2022-10-18T00:29:07.652Z,93492.56
2022-10-18T00:31:38.379Z,93489.81
2022-10-18T00:34:15.586Z,93483.75
2022-10-18T00:36:45.034Z,93484.38
2022-10-18T00:39:20.779Z,93486.56
2022-10-18T00:41:50.499Z,93473.25
2022-10-18T00:44:18.918Z,93476.00
2022-10-18T00:46:50.734Z,93471.47
2022-10-18T00:49:30.059Z,93474.44
2022-10-18T00:52:02.346Z,93463.44
2022-10-18T00:54:32.786Z,93465.75
2022-10-18T00:57:01.551Z,93468.16
2022-10-18T00:59:30.604Z,93467.63
2022-10-18T01:01:59.260Z,93473.72
2022-10-18T01:04:27.909Z,93471.53
2022-10-18T01:07:02.938Z,93473.13
2022-10-18T01:09:40.331Z,93465.22
2022-10-18T01:12:37.418Z,93466.50
2022-10-18T01:15:15.021Z,93465.13
2022-10-18T01:17:49.615Z,93471.94
2022-10-18T01:21:00.410Z,93474.88
2022-10-18T01:23:39.096Z,93466.19
2022-10-18T01:26:41.011Z,93469.84
2022-10-18T01:29:34.694Z,93465.28
2022-10-18T01:32:08.968Z,93473.94
2022-10-18T01:34:41.446Z,93472.25
2022-10-18T01:37:13.358Z,93472.63
2022-10-18T01:39:45.788Z,93474.25
2022-10-18T01:42:18.611Z,93469.03
2022-10-18T01:44:48.491Z,93473.25
2022-10-18T01:47:18.375Z,93466.66
2022-10-18T01:49:46.861Z,93470.06
2022-10-18T01:52:17.571Z,93468.44
2022-10-18T01:54:50.157Z,93479.75
2022-10-18T01:57:23.900Z,93478.44
2022-10-18T02:00:20.692Z,93481.84
2022-10-18T02:03:25.918Z,93474.91
2022-10-18T02:05:57.275Z,93471.63
2022-10-18T02:08:46.243Z,93483.81
2022-10-18T02:11:19.726Z,93469.75
2022-10-18T02:14:04.330Z,93478.31
2022-10-18T02:17:10.051Z,93477.91
2022-10-18T02:19:45.200Z,93483.19
2022-10-18T02:22:15.748Z,93480.13
2022-10-18T02:24:49.901Z,93484.84
2022-10-18T02:27:18.976Z,93478.75
2022-10-18T02:29:48.270Z,93490.56
2022-10-18T02:32:39.369Z,93486.41
2022-10-18T02:35:37.019Z,93483.84
2022-10-18T02:38:08.740Z,93486.25
2022-10-18T02:40:38.034Z,93490.25
2022-10-18T02:43:08.490Z,93501.41
2022-10-18T02:45:37.269Z,93504.03
2022-10-18T02:48:05.994Z,93501.03
2022-10-18T02:50:34.627Z,93501.63
2022-10-18T02:53:03.206Z,93503.63
2022-10-18T02:55:31.689Z,93502.25
2022-10-18T02:58:00.323Z,93510.88
2022-10-18T03:00:28.866Z,93511.38
2022-10-18T03:02:57.430Z,93515.97
2022-10-18T03:05:25.965Z,93513.88
2022-10-18T03:07:54.476Z,93505.50
2022-10-18T03:10:22.968Z,93517.56
2022-10-18T03:12:51.460Z,93505.38
2022-10-18T03:15:20.068Z,93511.69
2022-10-18T03:17:48.573Z,93503.78
2022-10-18T03:20:17.171Z,93504.13
2022-10-18T03:22:45.796Z,93506.53
2022-10-18T03:25:14.446Z,93505.94
2022-10-18T03:27:43.028Z,93515.84
2022-10-18T03:30:14.594Z,93522.38
2022-10-18T03:32:43.229Z,93518.81
2022-10-18T03:35:12.064Z,93510.75
2022-10-18T03:37:40.572Z,93516.59
2022-10-18T03:40:10.121Z,93514.88
2022-10-18T03:42:38.476Z,93521.88
2022-10-18T03:45:07.206Z,93512.00
2022-10-18T03:47:35.773Z,93518.28
2022-10-18T03:50:04.345Z,93519.78
2022-10-18T03:52:33.143Z,93528.09
2022-10-18T03:55:01.927Z,93518.47
2022-10-18T03:57:30.372Z,93518.34
2022-10-18T03:59:58.868Z,93514.56
2022-10-18T04:02:28.649Z,93514.56
2022-10-18T04:04:59.855Z,93521.28
2022-10-18T04:07:28.454Z,93522.25
2022-10-18T04:09:56.951Z,93520.25
2022-10-18T04:12:25.414Z,93511.22
2022-10-18T04:14:55.557Z,93515.56
2022-10-18T04:17:24.231Z,93522.06
2022-10-18T04:19:52.735Z,93525.28
2022-10-18T04:22:21.354Z,93526.75
2022-10-18T04:24:49.899Z,93521.34
2022-10-18T04:27:18.079Z,93524.56
2022-10-18T04:29:46.679Z,93531.09
2022-10-18T04:32:15.193Z,93528.78
2022-10-18T04:37:17.051Z,93529.84
2022-10-18T04:39:52.592Z,93529.53
2022-10-18T04:42:23.060Z,93531.63
2022-10-18T04:44:51.872Z,93538.88
2022-10-18T04:47:20.246Z,93534.50
2022-10-18T04:49:48.848Z,93540.81
2022-10-18T04:52:17.357Z,93545.94
2022-10-18T04:54:45.840Z,93536.88
2022-10-18T04:57:14.488Z,93532.94
2022-10-18T04:59:43.030Z,93538.22
2022-10-18T05:02:10.938Z,93531.41
2022-10-18T05:04:39.482Z,93528.47
2022-10-18T05:07:07.982Z,93540.13
2022-10-18T05:09:36.416Z,93536.09
2022-10-18T05:12:05.038Z,93537.72
2022-10-18T05:14:33.479Z,93542.88
2022-10-18T05:17:01.922Z,93545.13
2022-10-18T05:19:30.465Z,93533.41
2022-10-18T05:21:59.080Z,93536.56
2022-10-18T05:24:27.858Z,93542.50
2022-10-18T05:26:56.505Z,93541.88
2022-10-18T05:29:25.054Z,93540.75
2022-10-18T05:31:53.634Z,93540.88
2022-10-18T05:34:21.678Z,93537.88
2022-10-18T05:36:52.984Z,93544.94
2022-10-18T05:39:21.605Z,93543.69
2022-10-18T05:41:50.306Z,93549.28
2022-10-18T05:44:18.913Z,93544.22
2022-10-18T05:46:47.405Z,93545.75
2022-10-18T05:49:16.745Z,93553.22
2022-10-18T05:51:45.282Z,93546.03
2022-10-18T05:54:14.520Z,93553.16
2022-10-18T05:56:43.434Z,93550.88
2022-10-18T05:59:13.365Z,93551.31
2022-10-18T06:01:43.358Z,93552.50
2022-10-18T06:04:12.132Z,93558.25
2022-10-18T06:06:41.526Z,93551.00
2022-10-18T06:09:10.256Z,93550.63
2022-10-18T06:11:38.919Z,93552.47
2022-10-18T06:14:09.301Z,93541.41
2022-10-18T06:19:11.836Z,93557.97
2022-10-18T06:21:40.734Z,93556.88
2022-10-18T06:24:09.251Z,93554.88
2022-10-18T06:26:37.738Z,93547.16
2022-10-18T06:29:06.284Z,93544.69
2022-10-18T06:31:34.910Z,93548.19
2022-10-18T06:34:03.617Z,93550.78
2022-10-18T06:36:32.325Z,93552.94
2022-10-18T06:39:01.355Z,93558.28
2022-10-18T06:41:29.831Z,93556.13
2022-10-18T06:43:59.898Z,93562.13
2022-10-18T06:46:28.540Z,93559.94
2022-10-18T06:48:57.697Z,93553.66
2022-10-18T06:51:26.376Z,93562.44
2022-10-18T06:54:06.276Z,93566.19
2022-10-18T06:56:43.119Z,93568.69
2022-10-18T06:59:11.701Z,93566.91
2022-10-18T07:01:40.274Z,93576.25
2022-10-18T07:04:08.944Z,93568.94
2022-10-18T07:06:37.390Z,93572.00
2022-10-18T07:09:05.744Z,93560.88
2022-10-18T07:11:34.315Z,93565.88
2022-10-18T07:14:07.318Z,93564.91
2022-10-18T07:16:36.327Z,93575.44
2022-10-18T07:19:05.074Z,93571.69
2022-10-18T07:21:34.015Z,93566.88
2022-10-18T07:24:02.222Z,93572.97
2022-10-18T07:26:33.166Z,93571.00
2022-10-18T07:29:06.757Z,93579.06
2022-10-18T07:31:35.710Z,93578.03
2022-10-18T07:34:06.776Z,93578.28
2022-10-18T07:36:35.921Z,93582.31
2022-10-18T07:39:05.132Z,93580.88
2022-10-18T07:41:37.569Z,93584.50
2022-10-18T07:44:06.264Z,93586.09
2022-10-18T07:46:34.751Z,93587.81
2022-10-18T07:49:03.310Z,93593.50
2022-10-18T07:51:34.048Z,93588.31
2022-10-18T07:54:02.541Z,93591.16
2022-10-18T07:56:31.185Z,93590.59
2022-10-18T07:58:59.701Z,93589.81
2022-10-18T08:01:28.230Z,93587.78
2022-10-18T08:03:56.332Z,93585.53
2022-10-18T08:06:25.360Z,93583.53
2022-10-18T08:08:53.987Z,93581.00
2022-10-18T08:11:25.260Z,93589.09
2022-10-18T08:13:55.109Z,93597.38
2022-10-18T08:16:28.895Z,93584.19
2022-10-18T08:19:00.113Z,93583.41
2022-10-18T08:21:29.140Z,93588.03
2022-10-18T08:23:57.706Z,93586.16
2022-10-18T08:26:26.222Z,93583.91
2022-10-18T08:29:10.370Z,93589.97
2022-10-18T08:31:43.695Z,93593.97
2022-10-18T08:34:14.841Z,93599.41
2022-10-18T08:36:47.495Z,93598.53
2022-10-18T08:39:16.006Z,93597.75
2022-10-18T08:42:15.373Z,93602.22
2022-10-18T08:44:50.383Z,93602.59
2022-10-18T08:47:30.566Z,93602.22
2022-10-18T08:50:15.745Z,93594.16
2022-10-18T08:53:07.257Z,93604.88
2022-10-18T08:55:47.233Z,93598.88
2022-10-18T08:58:22.036Z,93592.47
2022-10-18T09:01:23.088Z,93593.72
2022-10-18T09:04:21.969Z,93597.38
2022-10-18T09:07:15.516Z,93597.41
2022-10-18T09:10:04.915Z,93602.66
2022-10-18T09:12:59.628Z,93607.13
2022-10-18T09:15:49.282Z,93603.44
2022-10-18T09:18:38.712Z,93606.09
2022-10-18T09:21:22.348Z,93607.94
2022-10-18T09:24:05.188Z,93609.97
2022-10-18T09:26:44.972Z,93604.91
2022-10-18T09:29:25.647Z,93611.19
2022-10-18T09:32:12.457Z,93611.41
2022-10-18T09:35:15.900Z,93611.19
2022-10-18T09:37:45.734Z,93620.88
2022-10-18T09:40:20.918Z,93617.06
2022-10-18T09:42:59.882Z,93623.72
2022-10-18T09:45:36.140Z,93636.03
2022-10-18T09:48:30.936Z,93622.31
2022-10-18T09:51:13.489Z,93623.53
2022-10-18T09:54:29.488Z,93615.84
2022-10-18T09:57:25.096Z,93623.91
2022-10-18T09:59:53.976Z,93610.78
2022-10-18T10:02:24.909Z,93624.31
2022-10-18T10:04:55.730Z,93623.72
2022-10-18T10:07:42.643Z,93626.09
2022-10-18T10:10:32.917Z,93623.28
2022-10-18T10:13:08.653Z,93630.97
2022-10-18T10:15:41.783Z,93639.06
2022-10-18T10:18:44.791Z,93636.63
2022-10-18T10:21:18.104Z,93633.63
2022-10-18T10:23:59.304Z,93638.66
2022-10-18T10:26:35.243Z,93645.34
2022-10-18T10:29:04.480Z,93646.13
2022-10-18T10:31:35.823Z,93639.25
2022-10-18T10:34:16.267Z,93647.94
2022-10-18T10:36:51.727Z,93644.91
2022-10-18T10:39:22.763Z,93642.91
2022-10-18T10:41:57.756Z,93644.31
2022-10-18T10:44:30.792Z,93649.75
2022-10-18T10:47:00.361Z,93651.59
2022-10-18T10:49:47.184Z,93651.97
2022-10-18T10:52:27.650Z,93659.06
2022-10-18T10:55:30.525Z,93648.13
2022-10-18T10:57:56.748Z,93661.63
2022-10-18T11:00:44.965Z,93665.09
2022-10-18T11:03:29.593Z,93667.50
2022-10-18T11:06:01.799Z,93663.66
2022-10-18T11:08:37.365Z,93663.66
2022-10-18T11:11:32.438Z,93677.75
2022-10-18T11:14:30.249Z,93663.59
2022-10-18T11:17:04.238Z,93672.06
2022-10-18T11:20:03.166Z,93669.22
2022-10-18T11:22:37.740Z,93676.06
2022-10-18T11:25:07.281Z,93680.69
2022-10-18T11:27:46.786Z,93679.06
2022-10-18T11:30:39.111Z,93675.03
2022-10-18T11:33:56.338Z,93669.97
2022-10-18T11:36:34.047Z,93676.03
2022-10-18T11:39:19.815Z,93674.38
2022-10-18T11:41:59.980Z,93681.28
2022-10-18T11:44:45.399Z,93689.38
2022-10-18T11:47:35.816Z,93696.19
2022-10-18T11:50:09.517Z,93689.66
2022-10-18T11:52:52.084Z,93701.41
2022-10-18T11:55:45.446Z,93700.28
2022-10-18T11:58:38.478Z,93707.97
2022-10-18T12:01:17.169Z,93708.81
2022-10-18T12:03:51.571Z,93706.41
2022-10-18T12:06:23.882Z,93706.22
2022-10-18T12:09:01.146Z,93706.97
2022-10-18T12:11:46.897Z,93711.47
2022-10-18T12:14:29.421Z,93717.13
2022-10-18T12:17:35.846Z,93714.69
2022-10-18T12:19:52.550Z,93717.31
2022-10-18T12:23:04.170Z,93721.75
2022-10-18T12:25:38.436Z,93717.75
2022-10-18T12:28:25.979Z,93716.72
2022-10-18T12:30:59.750Z,93724.41
2022-10-18T12:33:32.472Z,93726.44
2022-10-18T12:36:12.490Z,93725.41
2022-10-18T12:38:44.154Z,93722.88
2022-10-18T12:41:23.413Z,93721.22
2022-10-18T12:44:00.563Z,93713.94
2022-10-18T12:46:55.922Z,93717.59
2022-10-18T12:49:39.145Z,93720.41
2022-10-18T12:52:24.669Z,93735.81
2022-10-18T12:55:15.299Z,93736.22
2022-10-18T12:57:55.453Z,93745.50
2022-10-18T13:00:32.909Z,93748.59
2022-10-18T13:03:19.481Z,93741.06
2022-10-18T13:05:54.697Z,93745.91
2022-10-18T13:08:32.952Z,93744.47
2022-10-18T13:11:10.719Z,93752.81
2022-10-18T13:13:55.796Z,93751.03
2022-10-18T13:16:24.286Z,93751.25
2022-10-18T13:19:01.455Z,93745.03
2022-10-18T13:21:36.006Z,93751.28
2022-10-18T13:24:21.200Z,93744.41
2022-10-18T13:26:59.284Z,93752.09
2022-10-18T13:30:17.931Z,93753.91
2022-10-18T13:33:30.187Z,93759.75
2022-10-18T13:36:05.385Z,93759.75
2022-10-18T13:38:36.599Z,93769.44
2022-10-18T13:41:18.615Z,93767.22
2022-10-18T13:44:12.363Z,93776.38
2022-10-18T13:46:40.878Z,93774.16
2022-10-18T13:49:18.704Z,93779.63
2022-10-18T13:52:29.931Z,93782.91
2022-10-18T13:55:28.896Z,93778.25
2022-10-18T13:58:15.035Z,93773.19
2022-10-18T14:00:56.482Z,93777.44
2022-10-18T14:03:58.338Z,93783.69
2022-10-18T14:06:39.680Z,93786.31
2022-10-18T14:09:32.805Z,93786.50
2022-10-18T14:12:23.185Z,93787.50
2022-10-18T14:15:14.408Z,93787.69
2022-10-18T14:18:00.433Z,93783.63
2022-10-18T14:20:55.348Z,93789.06
2022-10-18T14:23:45.932Z,93794.53
2022-10-18T14:26:21.978Z,93792.50
2022-10-18T14:29:17.529Z,93793.09
2022-10-18T14:31:55.685Z,93777.75
2022-10-18T14:34:24.191Z,93791.91
2022-10-18T14:36:53.490Z,93798.63
2022-10-18T14:39:31.330Z,93803.91
2022-10-18T14:42:00.110Z,93809.97
2022-10-18T14:44:30.488Z,93824.72
2022-10-18T14:47:23.061Z,93813.16
2022-10-18T14:49:55.590Z,93818.38
2022-10-18T14:52:32.882Z,93813.91
2022-10-18T14:55:04.172Z,93809.63
2022-10-18T14:57:37.013Z,93818.91
2022-10-18T15:00:26.465Z,93826.53
2022-10-18T15:02:57.964Z,93827.53
2022-10-18T15:05:28.203Z,93826.06
2022-10-18T15:07:58.195Z,93819.72
2022-10-18T15:10:33.487Z,93824.13
2022-10-18T15:13:12.798Z,93830.34
2022-10-18T15:15:42.527Z,93826.59
2022-10-18T15:18:21.797Z,93838.84
2022-10-18T15:21:20.925Z,93839.50
2022-10-18T15:23:50.654Z,93843.78
2022-10-18T15:26:27.779Z,93852.75
2022-10-18T15:29:01.461Z,93849.41
2022-10-18T15:31:45.768Z,93843.84
2022-10-18T15:34:20.009Z,93841.88
2022-10-18T15:36:50.187Z,93846.41
2022-10-18T15:39:24.552Z,93847.06
2022-10-18T15:42:03.944Z,93845.06
2022-10-18T15:44:47.301Z,93850.34
2022-10-18T15:47:21.561Z,93847.31
2022-10-18T15:49:56.686Z,93853.91
2022-10-18T15:52:39.514Z,93861.09
2022-10-18T15:55:31.000Z,93865.59
2022-10-18T15:58:08.189Z,93873.09
2022-10-18T16:00:37.121Z,93881.38
2022-10-18T16:03:05.632Z,93884.41
2022-10-18T16:05:34.165Z,93881.09
2022-10-18T16:08:02.655Z,93888.63
2022-10-18T16:10:31.100Z,93883.44
2022-10-18T16:12:59.651Z,93886.13
2022-10-18T16:15:28.176Z,93878.19
2022-10-18T16:17:56.637Z,93890.28
2022-10-18T16:20:26.437Z,93886.47
2022-10-18T16:22:55.395Z,93900.28
2022-10-18T16:25:23.947Z,93891.44
2022-10-18T16:27:52.522Z,93883.03
2022-10-18T16:30:22.626Z,93886.72
2022-10-18T16:32:51.086Z,93884.84
2022-10-18T16:35:19.247Z,93888.31
2022-10-18T16:37:47.962Z,93901.88
2022-10-18T16:40:25.639Z,93899.44
2022-10-18T16:42:54.180Z,93898.69
2022-10-18T16:45:22.662Z,93902.34
2022-10-18T16:47:51.152Z,93900.34
2022-10-18T16:50:23.075Z,93912.25
2022-10-18T16:52:51.597Z,93923.13
2022-10-18T16:55:26.155Z,93923.22
2022-10-18T16:57:54.675Z,93917.41
2022-10-18T17:00:24.617Z,93918.97
2022-10-18T17:02:53.240Z,93918.16
2022-10-18T17:05:21.778Z,93912.69
2022-10-18T17:07:50.832Z,93916.56
2022-10-18T17:10:22.698Z,93920.66
2022-10-18T17:12:51.554Z,93925.09
2022-10-18T17:15:20.225Z,93926.25
2022-10-18T17:17:51.241Z,93919.16
2022-10-18T17:20:27.373Z,93922.81
2022-10-18T17:22:56.527Z,93924.66
2022-10-18T17:25:26.905Z,93928.22
2022-10-18T17:27:55.558Z,93927.78
2022-10-18T17:30:24.043Z,93928.75
2022-10-18T17:32:53.872Z,93932.56
2022-10-18T17:35:24.012Z,93925.63
2022-10-18T17:37:56.396Z,93919.59
2022-10-18T17:40:24.800Z,93918.38
2022-10-18T17:42:53.806Z,93916.88
2022-10-18T17:45:22.701Z,93919.66
2022-10-18T17:47:51.200Z,93921.53
2022-10-18T17:50:19.874Z,93919.19
2022-10-18T17:52:49.347Z,93922.81
2022-10-18T17:55:17.369Z,93914.84
2022-10-18T17:57:45.916Z,93920.56
2022-10-18T18:00:15.266Z,93916.97
2022-10-18T18:02:44.085Z,93924.59
2022-10-18T18:05:13.867Z,93922.00
2022-10-18T18:07:42.347Z,93917.47
2022-10-18T18:10:10.955Z,93922.94
2022-10-18T18:12:39.468Z,93922.78
2022-10-18T18:15:08.126Z,93927.28
2022-10-18T18:17:56.013Z,93928.19
2022-10-18T18:20:25.720Z,93929.31
2022-10-18T18:22:54.956Z,93932.50
2022-10-18T18:25:23.606Z,93928.97
2022-10-18T18:27:52.066Z,93926.84
2022-10-18T18:30:23.054Z,93932.41
2022-10-18T18:32:51.604Z,93930.00
2022-10-18T18:35:20.149Z,93933.09
2022-10-18T18:37:52.256Z,93933.31
2022-10-18T18:40:20.807Z,93937.66
2022-10-18T18:43:07.286Z,93944.44
2022-10-18T18:45:37.857Z,93940.44
2022-10-18T18:48:06.597Z,93945.00
2022-10-18T18:50:38.541Z,93935.28
2022-10-18T18:53:06.982Z,93937.84
2022-10-18T18:55:35.808Z,93944.91
2022-10-18T18:58:04.372Z,93943.53
2022-10-18T19:00:32.872Z,93941.72
2022-10-18T19:03:01.330Z,93940.00
2022-10-18T19:05:30.507Z,93941.78
2022-10-18T19:08:00.459Z,93945.97
2022-10-18T19:10:29.482Z,93948.09
2022-10-18T19:12:57.625Z,93948.88
2022-10-18T19:15:26.274Z,93949.38
2022-10-18T19:17:56.284Z,93962.31
2022-10-18T19:20:24.795Z,93947.44
2022-10-18T19:22:53.509Z,93946.47
2022-10-18T19:25:24.709Z,93954.56
2022-10-18T19:27:55.447Z,93953.53
2022-10-18T19:30:24.106Z,93955.19
2022-10-18T19:33:01.178Z,93960.41
2022-10-18T19:35:31.690Z,93963.72
2022-10-18T19:38:00.289Z,93969.81
2022-10-18T19:40:28.825Z,93964.94
2022-10-18T19:42:57.285Z,93957.31
2022-10-18T19:45:25.836Z,93964.78
2022-10-18T19:47:54.451Z,93953.88
2022-10-18T19:50:23.022Z,93965.72
2022-10-18T19:52:51.592Z,93964.22
2022-10-18T19:55:20.283Z,93963.69
2022-10-18T19:57:48.734Z,93964.72
2022-10-18T20:00:19.463Z,93957.69
2022-10-18T20:02:48.200Z,93964.03
2022-10-18T20:05:16.715Z,93953.56
2022-10-18T20:07:46.828Z,93959.25
2022-10-18T20:10:15.436Z,93964.56
2022-10-18T20:12:43.944Z,93961.88
2022-10-18T20:15:12.992Z,93957.28
2022-10-18T20:17:41.561Z,93965.38
2022-10-18T20:20:10.672Z,93953.88
2022-10-18T20:22:39.224Z,93947.69
2022-10-18T20:25:07.877Z,93946.81
2022-10-18T20:27:36.592Z,93952.25
2022-10-18T20:30:08.976Z,93955.31
2022-10-18T20:32:39.840Z,93953.50
2022-10-18T20:35:08.662Z,93960.25
2022-10-18T20:37:37.547Z,93957.72
2022-10-18T20:40:05.952Z,93949.81
2022-10-18T20:42:34.429Z,93947.31
2022-10-18T20:47:32.474Z,93963.66
2022-10-18T20:50:01.006Z,93954.06
2022-10-18T20:52:29.675Z,93956.47
2022-10-18T20:54:58.148Z,93953.56
2022-10-18T20:57:26.707Z,93948.78
2022-10-18T20:59:55.184Z,93953.72
2022-10-18T21:02:23.731Z,93959.31
2022-10-18T21:04:52.263Z,93958.00
2022-10-18T21:07:20.715Z,93956.31
2022-10-18T21:09:49.259Z,93959.31
2022-10-18T21:12:17.806Z,93953.13
2022-10-18T21:14:46.290Z,93953.81
2022-10-18T21:17:14.765Z,93947.81
2022-10-18T21:19:43.331Z,93948.22
2022-10-18T21:22:12.254Z,93955.63
2022-10-18T21:24:40.679Z,93946.53
2022-10-18T21:27:09.229Z,93955.00
2022-10-18T21:29:37.737Z,93954.13
2022-10-18T21:32:06.439Z,93963.72
2022-10-18T21:34:34.814Z,93961.72
2022-10-18T21:37:03.277Z,93969.09
2022-10-18T21:39:32.044Z,93972.22
2022-10-18T21:42:00.652Z,93976.00
2022-10-18T21:44:28.767Z,93971.00
2022-10-18T21:46:57.593Z,93971.56
2022-10-18T21:49:27.633Z,93978.25
2022-10-18T21:51:56.073Z,93988.53
2022-10-18T21:54:24.515Z,93981.66
2022-10-18T21:56:53.160Z,93989.72
2022-10-18T21:59:21.733Z,93994.78
2022-10-18T22:01:50.346Z,93992.25
2022-10-18T22:04:24.692Z,93991.13
2022-10-18T22:06:53.908Z,93998.91
2022-10-18T22:09:23.356Z,94000.31
2022-10-18T22:11:54.460Z,93996.00
2022-10-18T22:14:23.978Z,93990.94
2022-10-18T22:16:53.165Z,93986.22
2022-10-18T22:19:21.534Z,93984.00
2022-10-18T22:21:50.747Z,93995.28
2022-10-18T22:24:19.196Z,93989.69
2022-10-18T22:26:47.757Z,93996.84
2022-10-18T22:29:22.105Z,93996.81
2022-10-18T22:31:53.576Z,94000.97
2022-10-18T22:34:27.249Z,93995.03
2022-10-18T22:36:57.301Z,94012.81
2022-10-18T22:39:25.941Z,93995.38
2022-10-18T22:41:57.566Z,93996.81
2022-10-18T22:44:26.670Z,94006.16
2022-10-18T22:46:54.869Z,94001.47
2022-10-18T22:49:23.458Z,94006.84
2022-10-18T22:51:51.630Z,94009.81
2022-10-18T22:54:20.201Z,94006.72
2022-10-18T22:56:48.700Z,94000.88
2022-10-18T22:59:17.310Z,94002.88
2022-10-18T23:01:45.486Z,94004.75
2022-10-18T23:04:14.096Z,94007.06
2022-10-18T23:06:42.672Z,94012.31
2022-10-18T23:09:12.852Z,94010.78
2022-10-18T23:11:41.354Z,94017.16
2022-10-18T23:14:09.922Z,94018.03
2022-10-18T23:16:37.883Z,94015.28
2022-10-18T23:19:06.245Z,94019.53
2022-10-18T23:21:36.468Z,94023.72
2022-10-18T23:24:04.981Z,94026.50
2022-10-18T23:26:33.625Z,94025.41
2022-10-18T23:29:02.288Z,94031.81
2022-10-18T23:31:33.934Z,94034.53
2022-10-18T23:34:05.579Z,94032.41
2022-10-18T23:36:35.289Z,94029.56
2022-10-18T23:39:05.088Z,94024.03
2022-10-18T23:41:34.218Z,94029.16
2022-10-18T23:44:03.688Z,94026.81
2022-10-18T23:46:32.222Z,94019.91
2022-10-18T23:49:00.749Z,94023.22
2022-10-18T23:51:29.279Z,94025.13
2022-10-18T23:53:57.797Z,94021.69
2022-10-18T23:56:26.713Z,94029.78
2022-10-18T23:58:55.235Z,94024.22
